Time;durP1;ratioP1;P1;durP2;ratioP2;P2;SDS_P1;SDS_P2;PMS_P1;PMS_P2;Temp;Humidity;BMP_temperature;BMP_pressure;BME280_temperature;BME280_humidity;BME280_pressure;Samples;Min_cycle;Max_cycle;Signal;HPM_P1;HPM_P2
2022/06/09 00:01:32;;;;;;;7.33;6.73;;;19.10;99.90;;;;;;4965100;28;20455;-51
2022/06/09 00:04:14;;;;;;;6.00;5.60;;;19.10;99.90;;;;;;4964682;28;20446;-49
2022/06/09 00:06:52;;;;;;;6.53;6.13;;;19.00;99.90;;;;;;4971112;28;20507;-55
2022/06/09 00:09:20;;;;;;;6.27;5.87;;;19.00;99.90;;;;;;4967038;28;20429;-54
2022/06/09 00:11:49;;;;;;;6.67;6.10;;;19.00;99.90;;;;;;4970926;28;20409;-52
2022/06/09 00:14:16;;;;;;;6.47;6.07;;;18.90;99.90;;;;;;4970313;28;20915;-53
2022/06/09 00:16:42;;;;;;;6.77;6.37;;;18.90;99.90;;;;;;4970721;28;20516;-53
2022/06/09 00:19:09;;;;;;;6.80;6.40;;;18.90;99.90;;;;;;4964892;28;20634;-56
2022/06/09 00:21:35;;;;;;;6.73;6.33;;;18.80;99.90;;;;;;4970646;28;20435;-52
2022/06/09 00:24:01;;;;;;;6.87;6.47;;;18.80;99.90;;;;;;4966436;28;20444;-49
2022/06/09 00:26:28;;;;;;;6.40;6.00;;;18.70;99.90;;;;;;4970879;28;20431;-56
2022/06/09 00:28:54;;;;;;;7.17;6.63;;;18.60;99.90;;;;;;4964564;28;20437;-58
2022/06/09 00:31:20;;;;;;;6.90;6.50;;;18.60;99.90;;;;;;4970537;28;20417;-52
2022/06/09 00:33:46;;;;;;;6.43;6.03;;;18.50;99.90;;;;;;4967318;28;20471;-50
2022/06/09 00:36:12;;;;;;;7.20;6.60;;;18.40;99.90;;;;;;4970124;28;20421;-53
2022/06/09 00:38:38;;;;;;;7.30;6.70;;;18.30;99.90;;;;;;4965544;28;20435;-55
2022/06/09 00:41:04;;;;;;;7.37;6.87;;;18.30;99.90;;;;;;4968066;28;20189;-58
2022/06/09 00:43:30;;;;;;;7.00;6.60;;;18.30;99.90;;;;;;4965672;28;21001;-53
2022/06/09 00:46:27;;;;;;;6.30;5.90;;;18.20;99.90;;;;;;4967851;28;20467;-56
2022/06/09 00:48:55;;;;;;;6.10;5.70;;;18.30;99.90;;;;;;4975577;28;20945;-52
2022/06/09 00:51:44;;;;;;;6.00;5.60;;;18.30;99.90;;;;;;4970321;28;20460;-55
2022/06/09 00:54:25;;;;;;;6.00;5.50;;;18.40;99.90;;;;;;4962937;28;20433;-55
2022/06/09 00:57:20;;;;;;;5.73;5.20;;;18.30;99.90;;;;;;4962270;28;20464;-54
2022/06/09 00:59:49;;;;;;;5.70;5.30;;;18.30;99.90;;;;;;4962933;28;20481;-53
2022/06/09 01:02:18;;;;;;;5.40;5.00;;;18.30;99.90;;;;;;4962647;28;20809;-58
2022/06/09 01:04:45;;;;;;;5.10;4.77;;;18.40;99.90;;;;;;4965356;28;20459;-52
2022/06/09 01:07:16;;;;;;;4.73;4.43;;;18.40;99.90;;;;;;4964466;28;20428;-55
2022/06/09 01:09:42;;;;;;;5.10;4.70;;;18.40;99.90;;;;;;4968663;28;20939;-55
2022/06/09 01:12:30;;;;;;;5.03;4.63;;;18.30;99.90;;;;;;4967783;28;20440;-52
2022/06/09 01:15:00;;;;;;;4.80;4.50;;;18.20;99.90;;;;;;4971055;28;20196;-55
2022/06/09 01:17:51;;;;;;;5.03;4.73;;;18.20;99.90;;;;;;4964175;28;20448;-56
2022/06/09 01:20:28;;;;;;;4.93;4.63;;;18.10;99.90;;;;;;4960810;28;20443;-50
2022/06/09 01:23:18;;;;;;;5.00;4.60;;;18.00;99.90;;;;;;4968655;28;20578;-54
2022/06/09 01:26:08;;;;;;;6.40;4.80;;;17.90;99.90;;;;;;4966257;28;20430;-54
2022/06/09 01:29:15;;;;;;;4.60;4.30;;;17.90;99.90;;;;;;4975736;28;20444;-54
2022/06/09 01:31:46;;;;;;;5.37;4.97;;;17.80;99.90;;;;;;4950628;28;20432;-57
2022/06/09 01:34:21;;;;;;;5.20;4.80;;;17.70;99.90;;;;;;4970034;28;20493;-52
2022/06/09 01:36:59;;;;;;;6.37;5.07;;;17.60;99.90;;;;;;4966374;28;20448;-56
2022/06/09 01:39:44;;;;;;;5.00;4.50;;;17.60;99.90;;;;;;4969777;28;20856;-51
2022/06/09 01:42:31;;;;;;;5.10;4.60;;;17.50;99.90;;;;;;4966401;28;20554;-56
2022/06/09 01:45:03;;;;;;;4.83;4.53;;;17.50;99.90;;;;;;4959762;28;20431;-54
2022/06/09 01:47:54;;;;;;;5.33;5.03;;;17.40;99.90;;;;;;4965567;28;20436;-50
2022/06/09 01:50:42;;;;;;;4.50;4.20;;;17.40;99.90;;;;;;4970118;28;20996;-54
2022/06/09 01:53:15;;;;;;;5.67;4.27;;;17.30;99.90;;;;;;4967745;28;20445;-57
2022/06/09 01:55:51;;;;;;;4.80;4.30;;;17.30;99.90;;;;;;4969035;28;20534;-54
2022/06/09 01:58:22;;;;;;;4.33;4.03;;;17.20;99.90;;;;;;4970951;28;20458;-54
2022/06/09 02:00:50;;;;;;;4.63;4.33;;;17.30;99.90;;;;;;4968591;28;20430;-52
2022/06/09 02:03:22;;;;;;;4.70;4.30;;;17.20;99.90;;;;;;4971898;28;20494;-54
2022/06/09 02:05:51;;;;;;;4.80;4.40;;;17.20;99.90;;;;;;4972603;28;20442;-53
2022/06/09 02:08:19;;;;;;;5.70;4.13;;;17.20;99.90;;;;;;4963900;28;20474;-54
2022/06/09 02:10:51;;;;;;;5.37;4.40;;;17.10;99.90;;;;;;4979713;28;20530;-52
2022/06/09 02:13:25;;;;;;;4.60;4.13;;;17.10;99.90;;;;;;4967857;28;20475;-53
2022/06/09 02:15:54;;;;;;;4.20;3.83;;;17.20;99.90;;;;;;4972503;28;20422;-51
2022/06/09 02:18:23;;;;;;;4.50;4.20;;;17.10;99.90;;;;;;4962690;28;20855;-55
2022/06/09 02:20:55;;;;;;;4.27;3.87;;;17.10;99.90;;;;;;4969822;28;20531;-50
2022/06/09 02:23:21;;;;;;;4.53;4.23;;;17.10;99.90;;;;;;4969644;28;20894;-55
2022/06/09 02:25:47;;;;;;;4.93;4.27;;;17.10;99.90;;;;;;4968974;28;20530;-52
2022/06/09 02:28:13;;;;;;;4.13;3.83;;;17.10;99.90;;;;;;4971541;28;20430;-52
2022/06/09 02:30:39;;;;;;;4.80;4.40;;;17.10;99.90;;;;;;4966629;28;20667;-53
2022/06/09 02:33:05;;;;;;;4.50;4.20;;;17.20;99.90;;;;;;4972508;28;20200;-51
2022/06/09 02:35:31;;;;;;;4.80;4.40;;;17.20;99.90;;;;;;4972755;28;20190;-51
2022/06/09 02:37:56;;;;;;;4.83;4.37;;;17.20;99.90;;;;;;4971759;28;20447;-54
2022/06/09 02:40:22;;;;;;;4.67;4.27;;;17.20;99.90;;;;;;4969664;28;20195;-54
2022/06/09 02:42:48;;;;;;;4.60;4.20;;;17.30;99.90;;;;;;4971612;28;20223;-54
2022/06/09 02:45:15;;;;;;;4.50;4.20;;;17.30;99.90;;;;;;4970519;28;20243;-55
2022/06/09 02:47:41;;;;;;;5.63;4.40;;;17.30;99.90;;;;;;4966507;28;20492;-54
2022/06/09 02:50:07;;;;;;;4.47;4.07;;;17.30;99.90;;;;;;4969939;28;20451;-54
2022/06/09 02:52:33;;;;;;;4.33;4.13;;;17.30;99.90;;;;;;4969773;28;20242;-51
2022/06/09 02:54:59;;;;;;;5.13;4.73;;;17.30;99.90;;;;;;4968889;28;20452;-56
2022/06/09 02:57:25;;;;;;;4.40;4.10;;;17.30;99.90;;;;;;4968144;28;20472;-56
2022/06/09 02:59:51;;;;;;;4.20;3.83;;;17.30;99.90;;;;;;4971386;28;20196;-56
2022/06/09 03:02:18;;;;;;;4.63;3.93;;;17.30;99.90;;;;;;4970229;28;20866;-52
2022/06/09 03:04:44;;;;;;;3.90;3.60;;;17.40;99.90;;;;;;4961607;28;20441;-52
2022/06/09 03:07:10;;;;;;;3.80;3.50;;;17.40;99.90;;;;;;4965137;28;20448;-52
2022/06/09 03:09:35;;;;;;;4.00;3.60;;;17.40;99.90;;;;;;4962978;28;20447;-51
2022/06/09 03:12:01;;;;;;;4.07;3.77;;;17.40;99.90;;;;;;4971621;28;20749;-53
2022/06/09 03:14:27;;;;;;;4.20;3.90;;;17.50;99.90;;;;;;4971111;28;20556;-56
2022/06/09 03:16:52;;;;;;;4.50;4.10;;;17.50;99.90;;;;;;4969454;28;20199;-56
2022/06/09 03:19:18;;;;;;;4.27;3.87;;;17.50;99.90;;;;;;4971236;28;20250;-53
2022/06/09 03:21:45;;;;;;;4.03;3.77;;;17.60;99.90;;;;;;4964035;28;20255;-51
2022/06/09 03:24:10;;;;;;;4.00;3.70;;;17.60;99.90;;;;;;4971854;28;20427;-53
2022/06/09 03:26:36;;;;;;;4.27;3.97;;;17.60;99.90;;;;;;4963634;28;20442;-52
2022/06/09 03:29:02;;;;;;;4.27;3.97;;;17.70;99.90;;;;;;4971749;28;20185;-52
2022/06/09 03:31:27;;;;;;;3.97;3.60;;;17.70;99.90;;;;;;4969221;28;20189;-54
2022/06/09 03:33:53;;;;;;;3.67;3.43;;;17.70;99.90;;;;;;5002843;28;20278;-50
2022/06/09 03:36:18;;;;;;;3.57;3.27;;;17.70;99.90;;;;;;4967740;28;20218;-53
2022/06/09 03:38:44;;;;;;;4.80;3.60;;;17.70;99.90;;;;;;4966100;28;20194;-54
2022/06/09 03:41:10;;;;;;;3.87;3.60;;;17.60;99.90;;;;;;4969579;28;20195;-56
2022/06/09 03:43:35;;;;;;;3.97;3.67;;;17.60;99.90;;;;;;4969475;28;20829;-52
2022/06/09 03:46:02;;;;;;;5.93;3.80;;;17.60;99.90;;;;;;4967171;28;20568;-51
2022/06/09 03:48:28;;;;;;;3.80;3.50;;;17.60;99.90;;;;;;4970722;28;20283;-54
2022/06/09 03:50:54;;;;;;;3.97;3.67;;;17.70;99.90;;;;;;4969724;28;20518;-49
2022/06/09 03:53:20;;;;;;;3.97;3.67;;;17.70;99.90;;;;;;4969914;28;20539;-51
2022/06/09 03:55:46;;;;;;;3.70;3.40;;;17.70;99.90;;;;;;4968091;28;20620;-56
2022/06/09 03:58:11;;;;;;;3.90;3.60;;;17.70;99.90;;;;;;4964677;28;20872;-55
2022/06/09 04:00:37;;;;;;;4.17;3.53;;;17.80;99.90;;;;;;4968923;28;20461;-51
2022/06/09 04:03:04;;;;;;;4.30;3.90;;;17.70;99.90;;;;;;4965755;28;20295;-56
2022/06/09 04:05:30;;;;;;;3.60;3.40;;;17.70;99.90;;;;;;4966829;28;20187;-52
2022/06/09 04:07:59;;;;;;;3.70;3.40;;;17.70;99.90;;;;;;4966118;28;20448;-52
2022/06/09 04:10:27;;;;;;;4.00;3.70;;;17.70;99.90;;;;;;4975211;28;20498;-55
2022/06/09 04:12:53;;;;;;;3.40;3.20;;;17.70;99.90;;;;;;4975637;28;20610;-54
2022/06/09 04:15:20;;;;;;;3.53;3.33;;;17.70;99.90;;;;;;4969126;28;20878;-55
2022/06/09 04:17:46;;;;;;;3.53;3.00;;;17.70;99.90;;;;;;4973844;28;20530;-55
2022/06/09 04:20:13;;;;;;;3.93;3.50;;;17.80;99.90;;;;;;4963492;28;20454;-53
2022/06/09 04:22:39;;;;;;;3.93;3.63;;;17.90;99.90;;;;;;4964308;28;20463;-54
2022/06/09 04:25:06;;;;;;;4.27;3.87;;;17.80;99.90;;;;;;4945681;28;20454;-57
2022/06/09 04:27:31;;;;;;;4.53;3.47;;;17.90;99.90;;;;;;4961774;28;20727;-54
2022/06/09 04:29:57;;;;;;;3.97;3.70;;;17.90;99.90;;;;;;4947333;28;20467;-54
2022/06/09 04:32:24;;;;;;;3.73;3.43;;;17.90;99.90;;;;;;4951320;28;20220;-56
2022/06/09 04:34:49;;;;;;;3.77;3.53;;;17.80;99.90;;;;;;4947749;28;20193;-54
2022/06/09 04:37:15;;;;;;;4.13;3.77;;;17.90;99.90;;;;;;4954703;28;20932;-56
2022/06/09 04:39:41;;;;;;;4.00;3.43;;;17.90;99.90;;;;;;4942182;28;20197;-52
2022/06/09 04:42:08;;;;;;;3.80;3.43;;;18.10;99.90;;;;;;4948190;28;20214;-53
2022/06/09 04:44:33;;;;;;;3.73;3.43;;;18.10;99.90;;;;;;4953450;28;20438;-56
2022/06/09 04:46:59;;;;;;;11.10;5.73;;;18.10;99.90;;;;;;4985765;28;20982;-51
2022/06/09 04:49:25;;;;;;;3.67;3.10;;;18.10;99.90;;;;;;4973516;28;20668;-52
2022/06/09 04:51:50;;;;;;;7.20;5.30;;;18.00;99.90;;;;;;4968005;28;20196;-49
2022/06/09 04:54:16;;;;;;;3.87;3.67;;;18.10;99.90;;;;;;4970438;28;20396;-56
2022/06/09 04:56:41;;;;;;;4.37;3.97;;;18.10;99.90;;;;;;4980003;28;20236;-56
2022/06/09 04:59:07;;;;;;;3.97;3.57;;;18.10;99.90;;;;;;4961111;28;20829;-52
2022/06/09 05:01:33;;;;;;;3.23;3.03;;;18.00;99.90;;;;;;4956486;28;20652;-54
2022/06/09 05:04:00;;;;;;;3.97;3.57;;;17.90;99.90;;;;;;4963520;28;20188;-55
2022/06/09 05:06:27;;;;;;;3.50;3.30;;;18.00;99.90;;;;;;4970054;28;20192;-53
2022/06/09 05:08:55;;;;;;;3.30;3.10;;;17.90;99.90;;;;;;4959841;28;20979;-53
2022/06/09 05:11:22;;;;;;;3.40;3.20;;;18.00;99.90;;;;;;4963731;28;20428;-54
2022/06/09 05:13:48;;;;;;;4.00;3.27;;;18.00;99.90;;;;;;4965201;28;20934;-51
2022/06/09 05:16:14;;;;;;;4.00;3.70;;;18.00;99.90;;;;;;4964811;28;20428;-57
2022/06/09 05:18:40;;;;;;;3.30;3.10;;;18.00;99.90;;;;;;4964747;28;20196;-51
2022/06/09 05:21:07;;;;;;;3.23;2.90;;;18.10;99.90;;;;;;4963372;28;20475;-55
2022/06/09 05:23:33;;;;;;;3.50;3.30;;;18.10;99.90;;;;;;4967083;28;20471;-59
2022/06/09 05:26:00;;;;;;;5.27;3.43;;;18.10;99.90;;;;;;4963236;28;20901;-53
2022/06/09 05:28:27;;;;;;;3.30;3.00;;;18.10;99.90;;;;;;4955483;28;20816;-55
2022/06/09 05:30:53;;;;;;;3.60;3.30;;;18.10;99.90;;;;;;4959851;28;20472;-54
2022/06/09 05:33:20;;;;;;;3.57;3.27;;;18.10;99.90;;;;;;4961469;28;20432;-56
2022/06/09 05:35:45;;;;;;;3.63;3.43;;;18.10;99.90;;;;;;4960793;28;20439;-59
2022/06/09 05:46:28;;;;;;;5.53;5.03;;;18.50;99.90;;;;;;4964085;28;20435;-50
2022/06/09 05:48:53;;;;;;;4.20;3.60;;;18.60;99.90;;;;;;4960573;28;20415;-56
2022/06/09 05:51:19;;;;;;;3.53;3.23;;;18.70;99.90;;;;;;4965806;28;20182;-55
2022/06/09 05:53:45;;;;;;;3.50;3.30;;;18.70;99.90;;;;;;4970109;28;20235;-54
2022/06/09 05:56:12;;;;;;;3.70;3.30;;;18.80;99.90;;;;;;4974627;28;20232;-50
2022/06/09 05:58:38;;;;;;;3.30;3.10;;;18.70;99.90;;;;;;4971582;28;20977;-53
2022/06/09 06:01:09;;;;;;;4.00;3.80;;;18.70;99.90;;;;;;4972683;28;20428;-57
2022/06/09 06:03:37;;;;;;;3.80;3.60;;;18.70;99.90;;;;;;4960791;28;20308;-49
2022/06/09 06:08:47;;;;;;;3.70;3.50;;;18.60;99.90;;;;;;4971866;28;21033;-53
2022/06/09 06:11:14;;;;;;;3.53;3.33;;;18.60;99.90;;;;;;4972006;28;20499;-54
2022/06/09 06:13:41;;;;;;;3.80;3.50;;;18.60;99.90;;;;;;4970216;28;20195;-57
2022/06/09 06:16:07;;;;;;;3.83;3.53;;;18.60;99.90;;;;;;4968544;28;20543;-52
2022/06/09 06:18:32;;;;;;;3.20;3.00;;;18.60;99.90;;;;;;4967127;28;20910;-56
2022/06/09 06:20:58;;;;;;;4.20;3.80;;;18.50;99.90;;;;;;4969147;28;20197;-51
2022/06/09 06:23:24;;;;;;;3.83;3.53;;;18.50;99.90;;;;;;4970200;28;20201;-54
2022/06/09 06:25:52;;;;;;;3.70;3.50;;;18.60;99.90;;;;;;4967200;28;20440;-51
2022/06/09 06:28:18;;;;;;;3.87;3.60;;;18.70;99.90;;;;;;4969344;28;20191;-55
2022/06/09 06:30:43;;;;;;;3.20;3.00;;;18.60;99.90;;;;;;4964048;28;20413;-49
2022/06/09 06:33:09;;;;;;;4.43;3.27;;;18.60;99.90;;;;;;4969093;28;20181;-53
2022/06/09 06:35:35;;;;;;;3.90;3.60;;;18.70;99.90;;;;;;4967452;28;20189;-50
2022/06/09 06:38:00;;;;;;;3.43;3.20;;;18.70;99.90;;;;;;4961155;28;20903;-55
2022/06/09 06:40:27;;;;;;;5.20;3.33;;;18.70;99.90;;;;;;4970365;28;20193;-54
2022/06/09 06:42:53;;;;;;;3.23;3.03;;;18.80;99.90;;;;;;4972408;28;20204;-54
2022/06/09 06:45:19;;;;;;;3.53;3.30;;;18.80;99.90;;;;;;4960139;28;20495;-57
2022/06/09 06:47:44;;;;;;;3.00;2.77;;;18.90;99.90;;;;;;4963340;28;20922;-53
2022/06/09 06:50:12;;;;;;;3.93;3.63;;;19.00;99.90;;;;;;4977634;28;20444;-52
2022/06/09 06:52:39;;;;;;;3.13;2.83;;;19.00;99.90;;;;;;4973079;28;20260;-49
2022/06/09 06:55:07;;;;;;;3.30;3.10;;;18.90;99.90;;;;;;4971962;28;20432;-55
2022/06/09 06:57:33;;;;;;;3.20;3.00;;;18.90;99.90;;;;;;4969701;28;20468;-53
2022/06/09 07:00:00;;;;;;;3.50;3.30;;;18.70;99.90;;;;;;5002575;28;20784;-51
2022/06/09 07:02:26;;;;;;;3.17;2.90;;;18.60;99.90;;;;;;4971701;28;20460;-53
2022/06/09 07:04:51;;;;;;;3.23;3.03;;;18.70;99.90;;;;;;4971611;28;20423;-50
2022/06/09 07:07:17;;;;;;;3.50;3.30;;;18.60;99.90;;;;;;4964560;28;20413;-55
2022/06/09 07:09:43;;;;;;;2.90;2.70;;;18.50;99.90;;;;;;4962400;28;20200;-54
2022/06/09 07:12:09;;;;;;;3.50;3.30;;;18.50;99.90;;;;;;4957872;28;20264;-51
2022/06/09 07:14:35;;;;;;;3.93;3.60;;;18.40;99.90;;;;;;4962730;28;20231;-57
2022/06/09 07:17:01;;;;;;;3.30;3.07;;;18.40;99.90;;;;;;4960084;28;20422;-57
2022/06/09 07:19:26;;;;;;;3.60;3.40;;;18.50;99.90;;;;;;4966888;28;20221;-53
2022/06/09 07:21:52;;;;;;;4.07;3.73;;;18.50;99.90;;;;;;4962894;28;20317;-53
2022/06/09 07:24:18;;;;;;;3.60;3.40;;;18.50;99.90;;;;;;4958846;28;20188;-54
2022/06/09 07:26:44;;;;;;;4.00;3.47;;;18.50;99.90;;;;;;4965687;28;20206;-54
2022/06/09 07:29:10;;;;;;;3.50;3.30;;;18.40;99.90;;;;;;4966026;28;20456;-51
2022/06/09 07:31:36;;;;;;;3.47;3.20;;;18.30;99.90;;;;;;4968962;28;20188;-54
2022/06/09 07:34:02;;;;;;;3.57;3.37;;;18.20;99.90;;;;;;4962851;28;20800;-56
2022/06/09 07:36:28;;;;;;;3.90;3.70;;;18.20;99.90;;;;;;4969507;28;20825;-54
2022/06/09 07:38:54;;;;;;;3.40;3.20;;;18.10;99.90;;;;;;4972058;28;20436;-53
2022/06/09 07:41:20;;;;;;;3.63;3.43;;;18.10;99.90;;;;;;4964618;28;20185;-50
2022/06/09 07:43:47;;;;;;;4.00;3.80;;;18.00;99.90;;;;;;4971454;28;20267;-50
2022/06/09 07:46:13;;;;;;;3.30;3.10;;;18.00;99.90;;;;;;4970696;28;20531;-50
2022/06/09 07:48:39;;;;;;;3.60;3.40;;;18.00;99.90;;;;;;4973819;28;20452;-52
2022/06/09 07:51:05;;;;;;;4.37;3.90;;;18.00;99.90;;;;;;4971535;28;20424;-56
2022/06/09 07:53:30;;;;;;;3.73;3.53;;;18.00;99.90;;;;;;4970937;28;20335;-53
2022/06/09 07:55:56;;;;;;;4.07;3.77;;;18.10;99.90;;;;;;4969958;28;20282;-52
2022/06/09 07:58:22;;;;;;;4.03;3.73;;;18.10;99.90;;;;;;4971136;28;20203;-51
2022/06/09 08:00:48;;;;;;;3.87;3.47;;;18.00;99.90;;;;;;4966315;28;20181;-55
2022/06/09 08:03:24;;;;;;;5.70;3.30;;;17.90;99.90;;;;;;4965536;28;20986;-58
2022/06/09 08:05:50;;;;;;;3.33;3.03;;;17.90;99.90;;;;;;4972293;28;20431;-54
2022/06/09 08:08:16;;;;;;;3.27;3.07;;;17.90;99.90;;;;;;4969416;28;20864;-50
2022/06/09 08:10:42;;;;;;;3.33;3.13;;;18.00;99.90;;;;;;4971038;28;20499;-57
2022/06/09 08:13:08;;;;;;;3.03;2.83;;;18.10;99.90;;;;;;4985966;28;20560;-52
2022/06/09 08:15:34;;;;;;;3.80;3.50;;;18.20;99.90;;;;;;4969797;28;20468;-54
2022/06/09 08:18:01;;;;;;;8.50;3.77;;;18.30;99.90;;;;;;4970254;28;20452;-55
2022/06/09 08:20:31;;;;;;;4.60;3.80;;;18.40;99.90;;;;;;4961408;28;20238;-53
2022/06/09 08:23:05;;;;;;;4.30;4.00;;;18.40;99.90;;;;;;4970685;28;20530;-51
2022/06/09 08:25:31;;;;;;;4.87;4.47;;;18.30;99.90;;;;;;4970890;28;20420;-52
2022/06/09 08:27:57;;;;;;;4.50;4.20;;;18.00;99.90;;;;;;4969756;28;20463;-51
2022/06/09 08:30:23;;;;;;;4.50;4.10;;;17.80;99.90;;;;;;4970894;28;20183;-54
2022/06/09 08:32:48;;;;;;;4.80;4.47;;;17.50;99.90;;;;;;4968324;28;20193;-53
2022/06/09 08:35:16;;;;;;;4.27;4.07;;;17.30;99.90;;;;;;4964151;28;20941;-52
2022/06/09 08:37:43;;;;;;;4.50;4.10;;;17.20;99.90;;;;;;4951804;28;20200;-51
2022/06/09 08:40:15;;;;;;;4.20;3.90;;;17.10;99.90;;;;;;4951842;28;20470;-56
2022/06/09 08:43:18;;;;;;;5.10;4.60;;;17.10;99.90;;;;;;4953780;28;20466;-53
2022/06/09 08:45:45;;;;;;;4.20;3.90;;;17.10;99.90;;;;;;4971733;28;21154;-53
2022/06/09 08:48:19;;;;;;;4.80;4.30;;;17.00;99.90;;;;;;4980760;28;20468;-55
2022/06/09 08:50:51;;;;;;;4.53;4.00;;;17.00;99.90;;;;;;4980945;28;20486;-52
2022/06/09 08:53:34;;;;;;;4.50;4.20;;;16.80;99.90;;;;;;4953247;28;20965;-52
2022/06/09 08:56:10;;;;;;;4.57;4.17;;;16.80;99.90;;;;;;5001337;28;20471;-51
2022/06/09 08:58:47;;;;;;;4.30;3.90;;;16.80;99.90;;;;;;4970138;28;20434;-52
2022/06/09 09:01:31;;;;;;;3.90;3.60;;;16.80;99.90;;;;;;4972034;28;20447;-51
2022/06/09 09:04:21;;;;;;;4.50;4.20;;;16.90;99.90;;;;;;4993502;28;20478;-52
2022/06/09 09:06:59;;;;;;;4.23;3.87;;;16.90;99.90;;;;;;4952822;28;20427;-52
2022/06/09 09:09:31;;;;;;;4.23;3.93;;;17.00;99.90;;;;;;4953199;29;20451;-54
2022/06/09 09:11:56;;;;;;;4.40;4.10;;;17.10;99.90;;;;;;4968536;28;20434;-51
2022/06/09 09:14:52;;;;;;;4.27;3.97;;;17.20;99.90;;;;;;4999888;28;20456;-57
2022/06/09 09:17:42;;;;;;;4.30;3.90;;;17.10;99.90;;;;;;4980961;28;20194;-50
2022/06/09 09:20:29;;;;;;;4.07;3.73;;;17.20;99.90;;;;;;4976082;28;20767;-50
2022/06/09 09:23:08;;;;;;;5.20;4.80;;;17.20;99.90;;;;;;4974868;28;20451;-55
2022/06/09 09:25:42;;;;;;;5.10;4.70;;;17.30;99.90;;;;;;4955890;28;20427;-53
2022/06/09 09:28:19;;;;;;;5.87;5.37;;;17.40;99.90;;;;;;4979070;28;20408;-49
2022/06/09 09:31:20;;;;;;;6.33;5.83;;;17.50;99.90;;;;;;4967205;28;20434;-52
2022/06/09 09:33:46;;;;;;;5.87;5.47;;;17.70;99.90;;;;;;4964827;28;20432;-50
2022/06/09 09:36:24;;;;;;;5.90;5.50;;;17.70;99.90;;;;;;4972566;28;20435;-50
2022/06/09 09:38:55;;;;;;;6.63;6.13;;;17.90;99.90;;;;;;4973532;28;20466;-52
2022/06/09 09:41:37;;;;;;;6.20;5.70;;;18.00;99.90;;;;;;4979442;28;20424;-51
2022/06/09 09:44:25;;;;;;;6.73;6.13;;;18.10;99.90;;;;;;4970147;28;20867;-51
2022/06/09 09:46:59;;;;;;;7.03;6.53;;;18.30;99.90;;;;;;4973598;28;20498;-51
2022/06/09 09:49:43;;;;;;;6.20;5.73;;;18.30;99.90;;;;;;4971415;28;20452;-52
2022/06/09 09:52:34;;;;;;;6.07;5.67;;;18.30;99.90;;;;;;4963043;28;20934;-48
2022/06/09 09:55:00;;;;;;;6.37;5.87;;;18.40;99.90;;;;;;4972942;28;20431;-53
2022/06/09 09:57:28;;;;;;;6.57;6.07;;;18.40;99.90;;;;;;4971998;28;21301;-54
2022/06/09 09:59:56;;;;;;;5.87;5.47;;;18.40;99.90;;;;;;4962971;28;20232;-50
2022/06/09 10:08:43;;;;;;;6.63;6.13;;;18.10;99.90;;;;;;4962728;28;20490;-49
2022/06/09 10:14:32;;;;;;;7.60;7.00;;;17.90;99.90;;;;;;4973557;28;20517;-52
2022/06/09 10:16:57;;;;;;;8.07;7.47;;;17.70;99.90;;;;;;4967197;28;20439;-55
2022/06/09 10:19:26;;;;;;;8.03;7.43;;;17.50;99.90;;;;;;4972874;28;20796;-51
2022/06/09 10:22:03;;;;;;;8.10;7.40;;;17.40;99.90;;;;;;4972230;28;20442;-50
2022/06/09 10:24:59;;;;;;;7.90;7.30;;;17.40;99.90;;;;;;4972366;28;20467;-49
2022/06/09 10:27:32;;;;;;;7.53;6.93;;;17.30;99.90;;;;;;4977209;28;20436;-49
2022/06/09 10:30:18;;;;;;;7.10;6.60;;;17.40;99.90;;;;;;4973138;28;20427;-53
2022/06/09 10:33:01;;;;;;;7.87;7.17;;;17.40;99.90;;;;;;4967134;28;20842;-56
2022/06/09 10:35:46;;;;;;;6.80;6.30;;;17.40;99.90;;;;;;4981098;28;20545;-52
2022/06/09 10:38:38;;;;;;;7.40;6.80;;;17.50;99.90;;;;;;4955678;28;20472;-52
2022/06/09 10:41:10;;;;;;;7.80;7.20;;;17.60;99.90;;;;;;4972907;28;20435;-55
2022/06/09 10:43:48;;;;;;;7.90;7.20;;;17.50;99.90;;;;;;4972706;28;20507;-51
2022/06/09 10:46:40;;;;;;;9.53;7.63;;;17.50;99.90;;;;;;4968375;28;20434;-54
2022/06/09 10:55:18;;;;;;;7.50;6.90;;;17.50;99.90;;;;;;4972529;28;20438;-52
2022/06/09 10:57:58;;;;;;;6.97;6.37;;;17.40;99.90;;;;;;4971785;28;20459;-51
2022/06/09 11:00:35;;;;;;;7.67;7.07;;;17.50;99.90;;;;;;4972139;28;20459;-49
2022/06/09 11:03:09;;;;;;;7.37;6.77;;;17.50;99.90;;;;;;4971114;28;20545;-52
2022/06/09 11:05:59;;;;;;;7.80;7.20;;;17.50;99.90;;;;;;4972456;28;20423;-55
2022/06/09 11:08:51;;;;;;;7.77;7.13;;;17.50;99.90;;;;;;4972009;28;20420;-50
2022/06/09 11:11:34;;;;;;;7.60;7.00;;;17.40;99.90;;;;;;4968648;28;20460;-52
2022/06/09 11:14:32;;;;;;;7.43;6.90;;;17.50;99.90;;;;;;4972063;28;21013;-58
2022/06/09 11:17:01;;;;;;;8.10;7.50;;;17.40;99.90;;;;;;4970928;28;20446;-49
2022/06/09 11:19:48;;;;;;;8.23;7.63;;;17.40;99.90;;;;;;4965725;28;20428;-52
2022/06/09 11:23:01;;;;;;;9.00;8.30;;;17.30;99.90;;;;;;4970731;28;20474;-51
2022/06/09 11:25:55;;;;;;;8.87;8.07;;;17.30;99.90;;;;;;4979791;28;20865;-52
2022/06/09 11:28:58;;;;;;;8.90;8.20;;;17.20;99.90;;;;;;4970448;28;20431;-57
2022/06/09 11:31:52;;;;;;;8.93;8.23;;;17.20;99.90;;;;;;4976076;28;20477;-54
2022/06/09 11:34:30;;;;;;;9.63;8.80;;;17.20;99.90;;;;;;4963348;28;20798;-51
2022/06/09 11:37:16;;;;;;;10.00;9.20;;;17.20;99.90;;;;;;4968048;28;20884;-51
2022/06/09 11:39:58;;;;;;;9.20;8.40;;;17.30;99.90;;;;;;4971784;28;20439;-56
2022/06/09 11:42:54;;;;;;;10.50;9.60;;;17.40;99.90;;;;;;4965438;28;20463;-50
2022/06/09 11:45:44;;;;;;;9.93;9.03;;;17.50;99.90;;;;;;4968065;28;20426;-51
2022/06/09 11:48:24;;;;;;;9.47;8.67;;;17.70;99.90;;;;;;4969379;28;20535;-51
2022/06/09 11:50:52;;;;;;;8.87;8.07;;;17.80;99.90;;;;;;4969790;28;20424;-49
2022/06/09 11:53:25;;;;;;;9.70;8.90;;;17.90;99.90;;;;;;4970654;28;20420;-55
2022/06/09 11:56:11;;;;;;;9.80;8.90;;;18.10;99.90;;;;;;4970861;28;20417;-52
2022/06/09 11:58:36;;;;;;;9.60;8.80;;;18.40;99.90;;;;;;4971394;28;20431;-54
2022/06/09 12:01:21;;;;;;;9.70;8.83;;;18.60;99.90;;;;;;4985291;28;21230;-52
2022/06/09 12:04:04;;;;;;;8.73;7.93;;;18.70;99.90;;;;;;4965368;28;20217;-51
2022/06/09 12:06:50;;;;;;;10.10;9.20;;;18.80;99.90;;;;;;4970184;28;20424;-54
2022/06/09 12:09:25;;;;;;;8.77;7.97;;;19.10;99.90;;;;;;4971066;28;20412;-50
2022/06/09 12:11:55;;;;;;;9.13;8.20;;;19.30;99.90;;;;;;4984664;28;20432;-53
2022/06/09 12:14:35;;;;;;;8.37;7.67;;;19.60;99.90;;;;;;4970042;28;20472;-55
2022/06/09 12:17:30;;;;;;;7.80;7.10;;;19.70;99.90;;;;;;4971111;28;20451;-52
2022/06/09 12:19:59;;;;;;;8.07;6.63;;;19.80;99.90;;;;;;4964117;28;20536;-53
2022/06/09 12:22:40;;;;;;;7.40;6.80;;;20.10;99.90;;;;;;4969667;28;20969;-54
2022/06/09 12:25:11;;;;;;;6.77;6.27;;;20.30;99.90;;;;;;4970185;28;20500;-53
2022/06/09 12:27:37;;;;;;;7.40;6.80;;;20.50;99.90;;;;;;4979632;28;20410;-56
2022/06/09 12:30:02;;;;;;;7.83;7.17;;;20.70;99.90;;;;;;4976711;28;20426;-55
2022/06/09 12:32:43;;;;;;;6.97;6.47;;;20.80;99.90;;;;;;4964315;28;20188;-58
2022/06/09 12:35:21;;;;;;;7.23;6.73;;;20.90;99.90;;;;;;4970649;28;20195;-55
2022/06/09 12:37:53;;;;;;;8.03;7.43;;;21.00;99.90;;;;;;4965193;28;20428;-56
2022/06/09 12:40:22;;;;;;;8.20;7.60;;;21.00;99.90;;;;;;4963401;28;20893;-51
2022/06/09 12:42:51;;;;;;;7.20;6.60;;;21.00;99.90;;;;;;4970473;28;20630;-51
2022/06/09 12:45:21;;;;;;;7.27;6.77;;;21.10;99.90;;;;;;4960900;28;20481;-54
2022/06/09 12:47:56;;;;;;;7.23;6.73;;;21.10;99.90;;;;;;4977607;28;20443;-55
2022/06/09 12:50:30;;;;;;;6.80;6.37;;;21.10;99.90;;;;;;4964916;28;20431;-52
2022/06/09 12:52:57;;;;;;;8.13;7.53;;;21.00;99.90;;;;;;4970670;28;20422;-49
2022/06/09 12:55:29;;;;;;;7.40;6.90;;;20.80;99.90;;;;;;4969719;28;20427;-53
2022/06/09 12:58:04;;;;;;;7.40;6.80;;;20.80;99.90;;;;;;4956149;28;20473;-53
2022/06/09 13:00:45;;;;;;;7.20;6.60;;;20.90;99.90;;;;;;4958987;28;20490;-52
2022/06/09 13:03:33;;;;;;;7.40;6.80;;;21.00;99.90;;;;;;4963435;28;20557;-52
2022/06/09 13:06:21;;;;;;;6.33;5.83;;;20.90;99.90;;;;;;4969454;28;20437;-50
2022/06/09 13:08:49;;;;;;;6.80;6.40;;;21.00;99.90;;;;;;4970462;28;20494;-54
2022/06/09 13:12:50;;;;;;;6.50;6.00;;;21.20;99.90;;;;;;4970496;28;20778;-53
2022/06/09 13:14:10;;;;;;;7.00;6.43;;;21.40;99.90;;;;;;4952925;28;20494;-56
2022/06/09 13:16:42;;;;;;;6.70;5.80;;;21.40;99.90;;;;;;4966794;28;20503;-51
2022/06/09 13:19:10;;;;;;;6.70;6.20;;;21.50;99.90;;;;;;4977489;28;20868;-51
2022/06/09 13:21:41;;;;;;;6.90;6.17;;;21.60;99.90;;;;;;4970056;28;20398;-53
2022/06/09 13:24:24;;;;;;;7.43;6.83;;;21.70;99.90;;;;;;4970349;28;20467;-54
2022/06/09 13:26:50;;;;;;;6.40;5.90;;;21.80;99.90;;;;;;4952108;28;21159;-52
2022/06/09 13:29:21;;;;;;;7.07;6.57;;;22.00;99.90;;;;;;4969132;28;20487;-54
2022/06/09 13:31:49;;;;;;;7.43;6.87;;;22.20;99.90;;;;;;4970000;28;20538;-54
2022/06/09 13:34:17;;;;;;;7.73;7.20;;;22.40;99.90;;;;;;4976609;28;20434;-58
2022/06/09 13:37:02;;;;;;;7.23;6.73;;;22.40;99.90;;;;;;4973852;28;20448;-50